KMOT/MOT METAR and TAF weather

Enter ICAO airport designator
Station Type Date Time Source
KMOT METAR 2020/12/06 01:54 UTC NOAA

KMOT 060154Z 23008KT 10SM CLR 01/M04 A3017 RMK AO2 SLP238 T00061039


Station Type Date Time Source
KMOT Decoded METAR 2020/12/06 01:54 UTC NOAA

MINOT INTERNATIONAL AIRPORT , ND, United States (KMOT) 48-16N 101-17W 519M
Dec 05, 2020 - 08:54 PM EST / 2020.12.06 0154 UTC
Wind: from the SW (230 degrees) at 9 MPH (8 KT):0
Visibility: 10 mile(s):0
Sky conditions: clear
Temperature: 33.1 F (0.6 C)
Windchill: 24 F (-4 C):1
Dew Point: 25.0 F (-3.9 C)
Relative Humidity: 71%
Pressure (altimeter): 30.17 in. Hg (1021 hPa)
ob: KMOT 060154Z 23008KT 10SM CLR 01/M04 A3017 RMK AO2 SLP238 T00061039
cycle: 2

Station Type Date Time Source
KMOT TAF 2020/12/05 23:58 UTC NOAA

TAF
AMD KMOT 052258Z 0523/0618 27006KT P6SM SKC

Example: see airport list